sensor_id;sensor_type;location;lat;lon;timestamp;P1;durP1;ratioP1;P2;durP2;ratioP2
11245;SDS011;59870;50.106;8.580;2023-08-06T00:01:16;3.80;;;3.60;;
11245;SDS011;59870;50.106;8.580;2023-08-06T00:03:48;4.83;;;4.43;;
11245;SDS011;59870;50.106;8.580;2023-08-06T00:06:15;4.00;;;3.80;;
11245;SDS011;59870;50.106;8.580;2023-08-06T00:08:42;4.20;;;4.00;;
11245;SDS011;59870;50.106;8.580;2023-08-06T00:11:10;3.63;;;3.33;;
11245;SDS011;59870;50.106;8.580;2023-08-06T00:13:37;3.70;;;3.50;;
11245;SDS011;59870;50.106;8.580;2023-08-06T00:16:09;4.20;;;3.90;;
11245;SDS011;59870;50.106;8.580;2023-08-06T00:18:39;3.50;;;3.20;;
11245;SDS011;59870;50.106;8.580;2023-08-06T00:21:07;3.87;;;3.67;;
11245;SDS011;59870;50.106;8.580;2023-08-06T00:23:34;4.77;;;4.30;;
11245;SDS011;59870;50.106;8.580;2023-08-06T00:26:01;4.47;;;4.07;;
11245;SDS011;59870;50.106;8.580;2023-08-06T00:28:29;3.90;;;3.60;;
11245;SDS011;59870;50.106;8.580;2023-08-06T00:30:56;3.93;;;3.70;;
11245;SDS011;59870;50.106;8.580;2023-08-06T00:33:24;4.90;;;4.50;;
11245;SDS011;59870;50.106;8.580;2023-08-06T00:35:51;5.00;;;3.73;;
11245;SDS011;59870;50.106;8.580;2023-08-06T00:38:19;4.30;;;4.00;;
11245;SDS011;59870;50.106;8.580;2023-08-06T00:40:47;3.90;;;3.60;;
11245;SDS011;59870;50.106;8.580;2023-08-06T00:43:15;6.07;;;4.40;;
11245;SDS011;59870;50.106;8.580;2023-08-06T00:45:43;4.37;;;4.07;;
11245;SDS011;59870;50.106;8.580;2023-08-06T00:48:10;5.33;;;4.57;;
11245;SDS011;59870;50.106;8.580;2023-08-06T00:50:38;5.53;;;4.30;;
11245;SDS011;59870;50.106;8.580;2023-08-06T00:53:06;4.50;;;4.10;;
11245;SDS011;59870;50.106;8.580;2023-08-06T00:55:33;4.23;;;4.03;;
11245;SDS011;59870;50.106;8.580;2023-08-06T00:58:01;4.50;;;4.20;;
11245;SDS011;59870;50.106;8.580;2023-08-06T01:00:29;4.60;;;4.20;;
11245;SDS011;59870;50.106;8.580;2023-08-06T01:02:57;4.83;;;4.43;;
11245;SDS011;59870;50.106;8.580;2023-08-06T01:05:24;4.63;;;4.23;;
11245;SDS011;59870;50.106;8.580;2023-08-06T01:08:08;4.37;;;3.90;;
11245;SDS011;59870;50.106;8.580;2023-08-06T01:11:02;4.67;;;4.37;;
11245;SDS011;59870;50.106;8.580;2023-08-06T01:13:45;4.97;;;4.47;;
11245;SDS011;59870;50.106;8.580;2023-08-06T01:16:17;4.37;;;4.00;;
11245;SDS011;59870;50.106;8.580;2023-08-06T01:18:47;3.87;;;3.63;;
11245;SDS011;59870;50.106;8.580;2023-08-06T01:21:16;4.10;;;3.80;;
11245;SDS011;59870;50.106;8.580;2023-08-06T01:23:45;4.20;;;3.80;;
11245;SDS011;59870;50.106;8.580;2023-08-06T01:31:37;6.70;;;4.00;;
11245;SDS011;59870;50.106;8.580;2023-08-06T01:34:07;4.33;;;4.03;;
11245;SDS011;59870;50.106;8.580;2023-08-06T01:36:41;4.87;;;4.40;;
11245;SDS011;59870;50.106;8.580;2023-08-06T01:39:09;5.87;;;3.57;;
11245;SDS011;59870;50.106;8.580;2023-08-06T01:41:36;3.73;;;3.53;;
11245;SDS011;59870;50.106;8.580;2023-08-06T01:44:04;4.17;;;3.87;;
11245;SDS011;59870;50.106;8.580;2023-08-06T01:46:31;4.30;;;3.90;;
11245;SDS011;59870;50.106;8.580;2023-08-06T01:48:58;4.00;;;3.80;;
11245;SDS011;59870;50.106;8.580;2023-08-06T01:51:26;4.50;;;4.20;;
11245;SDS011;59870;50.106;8.580;2023-08-06T01:53:53;3.93;;;3.67;;
11245;SDS011;59870;50.106;8.580;2023-08-06T01:56:20;3.90;;;3.60;;
11245;SDS011;59870;50.106;8.580;2023-08-06T01:58:48;4.50;;;4.17;;
11245;SDS011;59870;50.106;8.580;2023-08-06T02:01:16;4.17;;;3.87;;
11245;SDS011;59870;50.106;8.580;2023-08-06T02:03:44;4.30;;;4.00;;
11245;SDS011;59870;50.106;8.580;2023-08-06T02:06:11;3.70;;;3.50;;
11245;SDS011;59870;50.106;8.580;2023-08-06T02:08:39;4.13;;;3.83;;
11245;SDS011;59870;50.106;8.580;2023-08-06T02:11:06;4.27;;;3.97;;
11245;SDS011;59870;50.106;8.580;2023-08-06T02:13:34;5.40;;;3.93;;
11245;SDS011;59870;50.106;8.580;2023-08-06T02:16:01;4.50;;;3.90;;
11245;SDS011;59870;50.106;8.580;2023-08-06T02:18:30;4.37;;;3.90;;
11245;SDS011;59870;50.106;8.580;2023-08-06T02:20:58;4.50;;;4.10;;
11245;SDS011;59870;50.106;8.580;2023-08-06T02:23:28;4.20;;;3.80;;
11245;SDS011;59870;50.106;8.580;2023-08-06T02:25:59;4.37;;;4.07;;
11245;SDS011;59870;50.106;8.580;2023-08-06T02:28:28;5.43;;;4.73;;
11245;SDS011;59870;50.106;8.580;2023-08-06T02:30:56;4.50;;;4.10;;
11245;SDS011;59870;50.106;8.580;2023-08-06T02:33:24;4.50;;;4.20;;
11245;SDS011;59870;50.106;8.580;2023-08-06T02:35:51;4.27;;;3.97;;
11245;SDS011;59870;50.106;8.580;2023-08-06T02:38:26;4.43;;;4.03;;
11245;SDS011;59870;50.106;8.580;2023-08-06T02:40:54;4.37;;;3.97;;
11245;SDS011;59870;50.106;8.580;2023-08-06T02:43:22;5.80;;;3.97;;
11245;SDS011;59870;50.106;8.580;2023-08-06T02:45:51;3.80;;;3.60;;
11245;SDS011;59870;50.106;8.580;2023-08-06T02:48:18;4.20;;;3.80;;
11245;SDS011;59870;50.106;8.580;2023-08-06T02:50:45;4.00;;;3.80;;
11245;SDS011;59870;50.106;8.580;2023-08-06T02:53:13;8.93;;;4.10;;
11245;SDS011;59870;50.106;8.580;2023-08-06T02:55:44;3.43;;;3.20;;
11245;SDS011;59870;50.106;8.580;2023-08-06T02:58:16;7.10;;;3.60;;
11245;SDS011;59870;50.106;8.580;2023-08-06T03:01:04;5.27;;;4.23;;
11245;SDS011;59870;50.106;8.580;2023-08-06T03:03:44;4.57;;;3.60;;
11245;SDS011;59870;50.106;8.580;2023-08-06T03:06:18;5.17;;;3.87;;
11245;SDS011;59870;50.106;8.580;2023-08-06T03:08:49;4.10;;;3.70;;
11245;SDS011;59870;50.106;8.580;2023-08-06T03:11:17;5.80;;;4.17;;
11245;SDS011;59870;50.106;8.580;2023-08-06T03:13:44;3.43;;;3.13;;
11245;SDS011;59870;50.106;8.580;2023-08-06T03:16:12;3.87;;;3.40;;
11245;SDS011;59870;50.106;8.580;2023-08-06T03:18:40;4.17;;;3.77;;
11245;SDS011;59870;50.106;8.580;2023-08-06T03:21:08;8.40;;;3.73;;
11245;SDS011;59870;50.106;8.580;2023-08-06T03:23:36;3.83;;;3.57;;
11245;SDS011;59870;50.106;8.580;2023-08-06T03:26:05;4.17;;;3.93;;
11245;SDS011;59870;50.106;8.580;2023-08-06T03:28:33;3.77;;;3.47;;
11245;SDS011;59870;50.106;8.580;2023-08-06T03:31:04;4.23;;;3.83;;
11245;SDS011;59870;50.106;8.580;2023-08-06T03:33:38;3.93;;;3.73;;
11245;SDS011;59870;50.106;8.580;2023-08-06T03:36:10;4.23;;;3.60;;
11245;SDS011;59870;50.106;8.580;2023-08-06T03:38:37;4.63;;;3.73;;
11245;SDS011;59870;50.106;8.580;2023-08-06T03:41:07;3.30;;;3.10;;
11245;SDS011;59870;50.106;8.580;2023-08-06T03:43:35;3.43;;;3.13;;
11245;SDS011;59870;50.106;8.580;2023-08-06T03:46:06;4.07;;;3.60;;
11245;SDS011;59870;50.106;8.580;2023-08-06T03:48:34;3.87;;;3.50;;
11245;SDS011;59870;50.106;8.580;2023-08-06T03:51:01;4.30;;;3.97;;
11245;SDS011;59870;50.106;8.580;2023-08-06T03:53:29;3.47;;;3.27;;
11245;SDS011;59870;50.106;8.580;2023-08-06T03:55:57;4.33;;;3.90;;
11245;SDS011;59870;50.106;8.580;2023-08-06T03:58:26;3.40;;;3.20;;
11245;SDS011;59870;50.106;8.580;2023-08-06T04:01:01;5.57;;;3.53;;
11245;SDS011;59870;50.106;8.580;2023-08-06T04:03:43;4.07;;;3.77;;
11245;SDS011;59870;50.106;8.580;2023-08-06T04:06:10;4.57;;;3.73;;
11245;SDS011;59870;50.106;8.580;2023-08-06T04:08:38;3.57;;;3.27;;
11245;SDS011;59870;50.106;8.580;2023-08-06T04:11:07;3.90;;;3.23;;
11245;SDS011;59870;50.106;8.580;2023-08-06T04:13:35;5.00;;;3.50;;
11245;SDS011;59870;50.106;8.580;2023-08-06T04:16:02;3.20;;;3.00;;
11245;SDS011;59870;50.106;8.580;2023-08-06T04:18:32;4.27;;;2.80;;
11245;SDS011;59870;50.106;8.580;2023-08-06T04:21:01;3.33;;;3.03;;
11245;SDS011;59870;50.106;8.580;2023-08-06T04:23:29;3.60;;;3.30;;
11245;SDS011;59870;50.106;8.580;2023-08-06T04:26:01;3.27;;;2.87;;
11245;SDS011;59870;50.106;8.580;2023-08-06T04:28:32;3.13;;;2.93;;
11245;SDS011;59870;50.106;8.580;2023-08-06T04:31:00;3.17;;;3.03;;
11245;SDS011;59870;50.106;8.580;2023-08-06T04:33:29;3.20;;;3.00;;
11245;SDS011;59870;50.106;8.580;2023-08-06T04:35:59;2.70;;;2.60;;
11245;SDS011;59870;50.106;8.580;2023-08-06T04:38:27;4.67;;;2.90;;
11245;SDS011;59870;50.106;8.580;2023-08-06T04:40:55;3.30;;;3.10;;
11245;SDS011;59870;50.106;8.580;2023-08-06T04:43:24;6.73;;;2.87;;
11245;SDS011;59870;50.106;8.580;2023-08-06T04:45:53;5.07;;;3.00;;
11245;SDS011;59870;50.106;8.580;2023-08-06T04:48:21;3.10;;;2.90;;
11245;SDS011;59870;50.106;8.580;2023-08-06T04:50:50;2.57;;;2.47;;
11245;SDS011;59870;50.106;8.580;2023-08-06T04:53:17;3.03;;;2.73;;
11245;SDS011;59870;50.106;8.580;2023-08-06T04:55:45;2.47;;;2.33;;
11245;SDS011;59870;50.106;8.580;2023-08-06T04:58:12;3.07;;;2.73;;
11245;SDS011;59870;50.106;8.580;2023-08-06T05:00:40;2.50;;;2.40;;
11245;SDS011;59870;50.106;8.580;2023-08-06T05:03:07;3.73;;;3.00;;
11245;SDS011;59870;50.106;8.580;2023-08-06T05:05:35;3.17;;;2.50;;
11245;SDS011;59870;50.106;8.580;2023-08-06T05:08:02;2.90;;;2.27;;
11245;SDS011;59870;50.106;8.580;2023-08-06T05:10:30;3.00;;;2.30;;
11245;SDS011;59870;50.106;8.580;2023-08-06T05:12:57;2.67;;;2.47;;
11245;SDS011;59870;50.106;8.580;2023-08-06T05:15:24;2.33;;;2.13;;
11245;SDS011;59870;50.106;8.580;2023-08-06T05:17:52;2.47;;;2.37;;
11245;SDS011;59870;50.106;8.580;2023-08-06T05:20:20;2.60;;;2.40;;
11245;SDS011;59870;50.106;8.580;2023-08-06T05:22:47;2.50;;;2.30;;
11245;SDS011;59870;50.106;8.580;2023-08-06T05:25:15;2.47;;;2.37;;
11245;SDS011;59870;50.106;8.580;2023-08-06T05:27:42;2.20;;;2.10;;
11245;SDS011;59870;50.106;8.580;2023-08-06T05:30:10;2.53;;;2.37;;
11245;SDS011;59870;50.106;8.580;2023-08-06T05:32:37;3.23;;;2.87;;
11245;SDS011;59870;50.106;8.580;2023-08-06T05:35:05;2.37;;;2.27;;
11245;SDS011;59870;50.106;8.580;2023-08-06T05:37:33;2.80;;;2.60;;
11245;SDS011;59870;50.106;8.580;2023-08-06T05:40:00;2.23;;;2.13;;
11245;SDS011;59870;50.106;8.580;2023-08-06T05:42:29;1.93;;;1.83;;
11245;SDS011;59870;50.106;8.580;2023-08-06T05:44:57;2.60;;;2.40;;
11245;SDS011;59870;50.106;8.580;2023-08-06T05:47:24;2.03;;;1.93;;
11245;SDS011;59870;50.106;8.580;2023-08-06T05:49:51;2.40;;;2.17;;
11245;SDS011;59870;50.106;8.580;2023-08-06T05:52:19;2.13;;;2.00;;
11245;SDS011;59870;50.106;8.580;2023-08-06T05:54:46;2.10;;;2.00;;
11245;SDS011;59870;50.106;8.580;2023-08-06T05:57:14;2.10;;;1.90;;
11245;SDS011;59870;50.106;8.580;2023-08-06T05:59:41;1.90;;;1.80;;
11245;SDS011;59870;50.106;8.580;2023-08-06T06:02:09;2.40;;;2.20;;
11245;SDS011;59870;50.106;8.580;2023-08-06T06:04:37;2.10;;;2.00;;
11245;SDS011;59870;50.106;8.580;2023-08-06T06:07:04;2.37;;;2.13;;
11245;SDS011;59870;50.106;8.580;2023-08-06T06:09:31;2.23;;;2.00;;
11245;SDS011;59870;50.106;8.580;2023-08-06T06:11:59;2.50;;;2.40;;
11245;SDS011;59870;50.106;8.580;2023-08-06T06:14:26;2.00;;;1.80;;
11245;SDS011;59870;50.106;8.580;2023-08-06T06:16:54;2.53;;;2.40;;
11245;SDS011;59870;50.106;8.580;2023-08-06T06:19:21;2.50;;;2.30;;
11245;SDS011;59870;50.106;8.580;2023-08-06T06:21:49;2.00;;;1.90;;
11245;SDS011;59870;50.106;8.580;2023-08-06T06:24:16;2.10;;;2.00;;
11245;SDS011;59870;50.106;8.580;2023-08-06T06:26:43;2.03;;;1.93;;
11245;SDS011;59870;50.106;8.580;2023-08-06T06:29:11;1.97;;;1.87;;
11245;SDS011;59870;50.106;8.580;2023-08-06T06:31:39;1.70;;;1.60;;
11245;SDS011;59870;50.106;8.580;2023-08-06T06:34:06;1.90;;;1.90;;
11245;SDS011;59870;50.106;8.580;2023-08-06T06:36:34;2.20;;;2.00;;
11245;SDS011;59870;50.106;8.580;2023-08-06T06:39:01;1.60;;;1.50;;
11245;SDS011;59870;50.106;8.580;2023-08-06T06:41:29;2.00;;;1.90;;
11245;SDS011;59870;50.106;8.580;2023-08-06T06:44:05;1.90;;;1.77;;
11245;SDS011;59870;50.106;8.580;2023-08-06T06:46:32;3.20;;;1.90;;
11245;SDS011;59870;50.106;8.580;2023-08-06T06:49:00;3.07;;;2.13;;
11245;SDS011;59870;50.106;8.580;2023-08-06T06:51:27;2.00;;;1.90;;
11245;SDS011;59870;50.106;8.580;2023-08-06T06:53:55;1.90;;;1.77;;
11245;SDS011;59870;50.106;8.580;2023-08-06T06:56:22;1.97;;;1.87;;
11245;SDS011;59870;50.106;8.580;2023-08-06T06:58:49;2.10;;;2.00;;
11245;SDS011;59870;50.106;8.580;2023-08-06T07:01:17;2.00;;;1.90;;
11245;SDS011;59870;50.106;8.580;2023-08-06T07:03:44;1.70;;;1.60;;
11245;SDS011;59870;50.106;8.580;2023-08-06T07:06:12;1.43;;;1.43;;
11245;SDS011;59870;50.106;8.580;2023-08-06T07:08:42;1.80;;;1.70;;
11245;SDS011;59870;50.106;8.580;2023-08-06T07:11:09;2.47;;;1.80;;
11245;SDS011;59870;50.106;8.580;2023-08-06T07:13:37;1.90;;;1.80;;
11245;SDS011;59870;50.106;8.580;2023-08-06T07:16:04;2.10;;;1.90;;
11245;SDS011;59870;50.106;8.580;2023-08-06T07:18:34;1.73;;;1.70;;
11245;SDS011;59870;50.106;8.580;2023-08-06T07:21:01;1.60;;;1.60;;
11245;SDS011;59870;50.106;8.580;2023-08-06T07:23:28;2.03;;;1.93;;
11245;SDS011;59870;50.106;8.580;2023-08-06T07:25:56;1.63;;;1.57;;
11245;SDS011;59870;50.106;8.580;2023-08-06T07:28:23;2.10;;;1.97;;
11245;SDS011;59870;50.106;8.580;2023-08-06T07:30:52;1.80;;;1.80;;
11245;SDS011;59870;50.106;8.580;2023-08-06T07:33:20;2.17;;;1.90;;
11245;SDS011;59870;50.106;8.580;2023-08-06T07:35:47;1.80;;;1.80;;
11245;SDS011;59870;50.106;8.580;2023-08-06T07:38:15;1.77;;;1.77;;
11245;SDS011;59870;50.106;8.580;2023-08-06T07:40:42;1.70;;;1.70;;
11245;SDS011;59870;50.106;8.580;2023-08-06T07:43:10;1.80;;;1.70;;
11245;SDS011;59870;50.106;8.580;2023-08-06T07:45:38;1.93;;;1.83;;
11245;SDS011;59870;50.106;8.580;2023-08-06T07:48:06;1.83;;;1.73;;
11245;SDS011;59870;50.106;8.580;2023-08-06T07:50:33;2.00;;;1.90;;
11245;SDS011;59870;50.106;8.580;2023-08-06T07:53:01;3.07;;;1.30;;
11245;SDS011;59870;50.106;8.580;2023-08-06T07:55:28;2.50;;;1.70;;
11245;SDS011;59870;50.106;8.580;2023-08-06T07:57:56;1.50;;;1.40;;
11245;SDS011;59870;50.106;8.580;2023-08-06T08:00:23;4.03;;;2.30;;
11245;SDS011;59870;50.106;8.580;2023-08-06T08:02:50;4.20;;;2.30;;
11245;SDS011;59870;50.106;8.580;2023-08-06T08:05:18;1.90;;;1.80;;
11245;SDS011;59870;50.106;8.580;2023-08-06T08:07:45;1.70;;;1.60;;
11245;SDS011;59870;50.106;8.580;2023-08-06T08:10:13;1.53;;;1.40;;
11245;SDS011;59870;50.106;8.580;2023-08-06T08:12:40;1.67;;;1.63;;
11245;SDS011;59870;50.106;8.580;2023-08-06T08:15:08;1.60;;;1.50;;
11245;SDS011;59870;50.106;8.580;2023-08-06T08:17:35;1.90;;;1.80;;
11245;SDS011;59870;50.106;8.580;2023-08-06T08:20:03;1.73;;;1.73;;
11245;SDS011;59870;50.106;8.580;2023-08-06T08:22:30;2.00;;;1.90;;
11245;SDS011;59870;50.106;8.580;2023-08-06T08:24:58;1.53;;;1.47;;
11245;SDS011;59870;50.106;8.580;2023-08-06T08:27:25;1.90;;;1.80;;
11245;SDS011;59870;50.106;8.580;2023-08-06T08:29:53;1.70;;;1.60;;
11245;SDS011;59870;50.106;8.580;2023-08-06T08:32:20;1.83;;;1.73;;
11245;SDS011;59870;50.106;8.580;2023-08-06T08:34:48;2.70;;;2.07;;
11245;SDS011;59870;50.106;8.580;2023-08-06T08:37:15;1.63;;;1.63;;
11245;SDS011;59870;50.106;8.580;2023-08-06T08:39:43;1.50;;;1.50;;
11245;SDS011;59870;50.106;8.580;2023-08-06T08:42:11;1.80;;;1.70;;
11245;SDS011;59870;50.106;8.580;2023-08-06T08:44:39;1.77;;;1.77;;
11245;SDS011;59870;50.106;8.580;2023-08-06T08:47:08;1.70;;;1.70;;
11245;SDS011;59870;50.106;8.580;2023-08-06T08:49:37;1.80;;;1.70;;
11245;SDS011;59870;50.106;8.580;2023-08-06T08:52:05;1.63;;;1.53;;
11245;SDS011;59870;50.106;8.580;2023-08-06T08:54:34;1.70;;;1.60;;
11245;SDS011;59870;50.106;8.580;2023-08-06T08:57:03;1.50;;;1.50;;
11245;SDS011;59870;50.106;8.580;2023-08-06T08:59:33;1.73;;;1.63;;
11245;SDS011;59870;50.106;8.580;2023-08-06T09:02:01;1.40;;;1.30;;
11245;SDS011;59870;50.106;8.580;2023-08-06T09:04:29;1.23;;;1.23;;
11245;SDS011;59870;50.106;8.580;2023-08-06T09:07:02;1.40;;;1.40;;
11245;SDS011;59870;50.106;8.580;2023-08-06T09:09:31;1.40;;;1.40;;
11245;SDS011;59870;50.106;8.580;2023-08-06T09:12:01;1.67;;;1.57;;
11245;SDS011;59870;50.106;8.580;2023-08-06T09:14:32;1.63;;;1.53;;
11245;SDS011;59870;50.106;8.580;2023-08-06T09:16:59;1.70;;;1.60;;
11245;SDS011;59870;50.106;8.580;2023-08-06T09:19:28;2.03;;;1.50;;
11245;SDS011;59870;50.106;8.580;2023-08-06T09:21:55;1.20;;;1.20;;
11245;SDS011;59870;50.106;8.580;2023-08-06T09:24:23;1.60;;;1.50;;
11245;SDS011;59870;50.106;8.580;2023-08-06T09:26:51;1.60;;;1.50;;
11245;SDS011;59870;50.106;8.580;2023-08-06T09:29:18;1.60;;;1.60;;
11245;SDS011;59870;50.106;8.580;2023-08-06T09:31:49;2.73;;;1.43;;
11245;SDS011;59870;50.106;8.580;2023-08-06T09:34:21;1.30;;;1.30;;
11245;SDS011;59870;50.106;8.580;2023-08-06T09:36:50;1.40;;;1.40;;
11245;SDS011;59870;50.106;8.580;2023-08-06T09:39:28;1.40;;;1.40;;
11245;SDS011;59870;50.106;8.580;2023-08-06T09:41:57;1.47;;;1.47;;
11245;SDS011;59870;50.106;8.580;2023-08-06T09:44:26;1.20;;;1.20;;
11245;SDS011;59870;50.106;8.580;2023-08-06T09:46:55;1.43;;;1.43;;
11245;SDS011;59870;50.106;8.580;2023-08-06T09:51:55;1.70;;;1.60;;
11245;SDS011;59870;50.106;8.580;2023-08-06T09:54:25;1.57;;;1.47;;
11245;SDS011;59870;50.106;8.580;2023-08-06T09:56:54;1.40;;;1.40;;
11245;SDS011;59870;50.106;8.580;2023-08-06T09:59:23;1.57;;;1.57;;
11245;SDS011;59870;50.106;8.580;2023-08-06T10:01:51;1.43;;;1.43;;
11245;SDS011;59870;50.106;8.580;2023-08-06T10:04:21;1.40;;;1.40;;
11245;SDS011;59870;50.106;8.580;2023-08-06T10:06:53;1.50;;;1.50;;
11245;SDS011;59870;50.106;8.580;2023-08-06T10:09:21;2.00;;;1.90;;
11245;SDS011;59870;50.106;8.580;2023-08-06T10:11:50;1.70;;;1.60;;
11245;SDS011;59870;50.106;8.580;2023-08-06T10:14:27;1.60;;;1.60;;
11245;SDS011;59870;50.106;8.580;2023-08-06T10:16:59;1.40;;;1.40;;
11245;SDS011;59870;50.106;8.580;2023-08-06T10:19:27;1.40;;;1.40;;
11245;SDS011;59870;50.106;8.580;2023-08-06T10:22:07;3.50;;;1.53;;
11245;SDS011;59870;50.106;8.580;2023-08-06T10:24:47;1.70;;;1.70;;
11245;SDS011;59870;50.106;8.580;2023-08-06T10:30:20;1.80;;;1.70;;
11245;SDS011;59870;50.106;8.580;2023-08-06T10:32:53;1.90;;;1.90;;
11245;SDS011;59870;50.106;8.580;2023-08-06T10:38:08;1.60;;;1.60;;
11245;SDS011;59870;50.106;8.580;2023-08-06T10:40:40;1.50;;;1.50;;
11245;SDS011;59870;50.106;8.580;2023-08-06T10:43:27;1.60;;;1.60;;
11245;SDS011;59870;50.106;8.580;2023-08-06T10:45:57;1.40;;;1.40;;
11245;SDS011;59870;50.106;8.580;2023-08-06T10:50:59;1.20;;;1.20;;
11245;SDS011;59870;50.106;8.580;2023-08-06T10:53:28;1.43;;;1.43;;
11245;SDS011;59870;50.106;8.580;2023-08-06T10:56:00;1.50;;;1.50;;
11245;SDS011;59870;50.106;8.580;2023-08-06T10:58:32;1.50;;;1.50;;
11245;SDS011;59870;50.106;8.580;2023-08-06T11:01:00;1.70;;;1.40;;
11245;SDS011;59870;50.106;8.580;2023-08-06T11:03:28;1.60;;;1.60;;
11245;SDS011;59870;50.106;8.580;2023-08-06T11:05:56;1.87;;;1.57;;
11245;SDS011;59870;50.106;8.580;2023-08-06T11:08:27;1.60;;;1.60;;
11245;SDS011;59870;50.106;8.580;2023-08-06T11:10:58;1.40;;;1.40;;
11245;SDS011;59870;50.106;8.580;2023-08-06T11:13:43;1.80;;;1.80;;
11245;SDS011;59870;50.106;8.580;2023-08-06T11:16:18;2.00;;;1.90;;
11245;SDS011;59870;50.106;8.580;2023-08-06T11:18:48;1.70;;;1.70;;
11245;SDS011;59870;50.106;8.580;2023-08-06T11:21:18;1.60;;;1.60;;
11245;SDS011;59870;50.106;8.580;2023-08-06T11:23:47;1.93;;;1.93;;
11245;SDS011;59870;50.106;8.580;2023-08-06T11:26:21;2.10;;;1.90;;
11245;SDS011;59870;50.106;8.580;2023-08-06T11:28:50;1.80;;;1.80;;
11245;SDS011;59870;50.106;8.580;2023-08-06T11:31:21;1.70;;;1.60;;
11245;SDS011;59870;50.106;8.580;2023-08-06T11:33:53;1.50;;;1.50;;
11245;SDS011;59870;50.106;8.580;2023-08-06T11:36:31;1.57;;;1.53;;
11245;SDS011;59870;50.106;8.580;2023-08-06T11:38:59;1.80;;;1.70;;
11245;SDS011;59870;50.106;8.580;2023-08-06T11:41:29;1.50;;;1.50;;
11245;SDS011;59870;50.106;8.580;2023-08-06T11:44:00;1.30;;;1.30;;
11245;SDS011;59870;50.106;8.580;2023-08-06T11:46:27;2.20;;;2.00;;
11245;SDS011;59870;50.106;8.580;2023-08-06T11:48:56;3.23;;;1.50;;
11245;SDS011;59870;50.106;8.580;2023-08-06T11:51:25;1.50;;;1.50;;
11245;SDS011;59870;50.106;8.580;2023-08-06T11:53:56;1.70;;;1.60;;
11245;SDS011;59870;50.106;8.580;2023-08-06T11:56:25;1.60;;;1.50;;
11245;SDS011;59870;50.106;8.580;2023-08-06T11:58:56;2.40;;;1.90;;
11245;SDS011;59870;50.106;8.580;2023-08-06T12:01:25;2.20;;;1.40;;
11245;SDS011;59870;50.106;8.580;2023-08-06T12:03:52;1.57;;;1.57;;
11245;SDS011;59870;50.106;8.580;2023-08-06T12:06:29;1.97;;;1.77;;
11245;SDS011;59870;50.106;8.580;2023-08-06T12:08:56;1.43;;;1.43;;
11245;SDS011;59870;50.106;8.580;2023-08-06T12:11:23;1.43;;;1.33;;
11245;SDS011;59870;50.106;8.580;2023-08-06T12:13:51;1.60;;;1.50;;
11245;SDS011;59870;50.106;8.580;2023-08-06T12:16:19;1.53;;;1.53;;
11245;SDS011;59870;50.106;8.580;2023-08-06T12:18:48;1.33;;;1.33;;
11245;SDS011;59870;50.106;8.580;2023-08-06T12:21:16;1.30;;;1.30;;
11245;SDS011;59870;50.106;8.580;2023-08-06T12:23:43;1.60;;;1.53;;
11245;SDS011;59870;50.106;8.580;2023-08-06T12:26:11;1.50;;;1.50;;
11245;SDS011;59870;50.106;8.580;2023-08-06T12:28:38;1.70;;;1.60;;
11245;SDS011;59870;50.106;8.580;2023-08-06T12:31:05;1.40;;;1.40;;
11245;SDS011;59870;50.106;8.580;2023-08-06T12:33:35;1.23;;;1.23;;
11245;SDS011;59870;50.106;8.580;2023-08-06T12:36:03;1.20;;;1.20;;
11245;SDS011;59870;50.106;8.580;2023-08-06T12:38:32;1.30;;;1.20;;
11245;SDS011;59870;50.106;8.580;2023-08-06T12:41:01;1.27;;;1.27;;
11245;SDS011;59870;50.106;8.580;2023-08-06T12:43:29;1.43;;;1.40;;
11245;SDS011;59870;50.106;8.580;2023-08-06T12:45:56;1.20;;;1.20;;
11245;SDS011;59870;50.106;8.580;2023-08-06T12:48:24;1.20;;;1.20;;
11245;SDS011;59870;50.106;8.580;2023-08-06T12:50:51;1.40;;;1.40;;
11245;SDS011;59870;50.106;8.580;2023-08-06T12:53:19;2.10;;;1.50;;
11245;SDS011;59870;50.106;8.580;2023-08-06T12:55:48;1.60;;;1.50;;
11245;SDS011;59870;50.106;8.580;2023-08-06T12:58:15;1.17;;;1.17;;
11245;SDS011;59870;50.106;8.580;2023-08-06T13:00:43;1.47;;;1.47;;
11245;SDS011;59870;50.106;8.580;2023-08-06T13:03:10;1.40;;;1.40;;
11245;SDS011;59870;50.106;8.580;2023-08-06T13:05:38;1.37;;;1.30;;
11245;SDS011;59870;50.106;8.580;2023-08-06T13:08:06;1.40;;;1.40;;
11245;SDS011;59870;50.106;8.580;2023-08-06T13:10:33;1.47;;;1.47;;
11245;SDS011;59870;50.106;8.580;2023-08-06T13:13:00;1.40;;;1.40;;
11245;SDS011;59870;50.106;8.580;2023-08-06T13:15:28;1.50;;;1.50;;
11245;SDS011;59870;50.106;8.580;2023-08-06T13:17:56;1.33;;;1.33;;
11245;SDS011;59870;50.106;8.580;2023-08-06T13:20:23;1.60;;;1.50;;
11245;SDS011;59870;50.106;8.580;2023-08-06T13:22:50;1.40;;;1.40;;
11245;SDS011;59870;50.106;8.580;2023-08-06T13:25:20;1.50;;;1.50;;
11245;SDS011;59870;50.106;8.580;2023-08-06T13:27:47;1.73;;;1.63;;
11245;SDS011;59870;50.106;8.580;2023-08-06T13:30:15;1.67;;;1.67;;
11245;SDS011;59870;50.106;8.580;2023-08-06T13:32:45;1.80;;;1.70;;
11245;SDS011;59870;50.106;8.580;2023-08-06T13:35:12;2.00;;;2.00;;
11245;SDS011;59870;50.106;8.580;2023-08-06T13:37:39;1.93;;;1.90;;
11245;SDS011;59870;50.106;8.580;2023-08-06T13:40:07;1.87;;;1.80;;
11245;SDS011;59870;50.106;8.580;2023-08-06T13:42:35;1.90;;;1.80;;
11245;SDS011;59870;50.106;8.580;2023-08-06T13:45:03;1.70;;;1.70;;
11245;SDS011;59870;50.106;8.580;2023-08-06T13:47:31;2.73;;;1.80;;
11245;SDS011;59870;50.106;8.580;2023-08-06T13:49:58;1.90;;;1.90;;
11245;SDS011;59870;50.106;8.580;2023-08-06T13:52:26;1.80;;;1.80;;
11245;SDS011;59870;50.106;8.580;2023-08-06T13:54:53;1.90;;;1.90;;
11245;SDS011;59870;50.106;8.580;2023-08-06T13:57:21;3.20;;;2.20;;
11245;SDS011;59870;50.106;8.580;2023-08-06T13:59:48;2.40;;;2.30;;
11245;SDS011;59870;50.106;8.580;2023-08-06T14:02:15;1.70;;;1.70;;
11245;SDS011;59870;50.106;8.580;2023-08-06T14:04:43;2.27;;;2.17;;
11245;SDS011;59870;50.106;8.580;2023-08-06T14:07:10;2.30;;;2.20;;
11245;SDS011;59870;50.106;8.580;2023-08-06T14:09:38;2.10;;;2.00;;
11245;SDS011;59870;50.106;8.580;2023-08-06T14:12:06;2.00;;;1.90;;
11245;SDS011;59870;50.106;8.580;2023-08-06T14:14:34;1.70;;;1.70;;
11245;SDS011;59870;50.106;8.580;2023-08-06T14:17:01;1.80;;;1.80;;
11245;SDS011;59870;50.106;8.580;2023-08-06T14:19:29;2.03;;;2.03;;
11245;SDS011;59870;50.106;8.580;2023-08-06T14:21:57;2.27;;;2.17;;
11245;SDS011;59870;50.106;8.580;2023-08-06T14:24:24;2.30;;;2.20;;
11245;SDS011;59870;50.106;8.580;2023-08-06T14:26:51;2.13;;;2.03;;
11245;SDS011;59870;50.106;8.580;2023-08-06T14:29:19;2.07;;;1.97;;
11245;SDS011;59870;50.106;8.580;2023-08-06T14:31:47;2.03;;;1.93;;
11245;SDS011;59870;50.106;8.580;2023-08-06T14:34:14;1.93;;;1.83;;
11245;SDS011;59870;50.106;8.580;2023-08-06T14:36:41;2.03;;;1.93;;
11245;SDS011;59870;50.106;8.580;2023-08-06T14:39:09;2.37;;;1.90;;
11245;SDS011;59870;50.106;8.580;2023-08-06T14:41:36;1.80;;;1.70;;
11245;SDS011;59870;50.106;8.580;2023-08-06T14:44:04;2.43;;;2.33;;
11245;SDS011;59870;50.106;8.580;2023-08-06T14:46:34;2.40;;;2.20;;
11245;SDS011;59870;50.106;8.580;2023-08-06T14:49:02;2.20;;;1.97;;
11245;SDS011;59870;50.106;8.580;2023-08-06T14:51:29;2.20;;;2.10;;
11245;SDS011;59870;50.106;8.580;2023-08-06T14:53:56;2.00;;;1.90;;
11245;SDS011;59870;50.106;8.580;2023-08-06T14:56:24;2.03;;;1.93;;
11245;SDS011;59870;50.106;8.580;2023-08-06T14:58:51;2.77;;;2.10;;
11245;SDS011;59870;50.106;8.580;2023-08-06T15:01:18;1.93;;;1.83;;
11245;SDS011;59870;50.106;8.580;2023-08-06T15:03:46;2.23;;;2.13;;
11245;SDS011;59870;50.106;8.580;2023-08-06T15:06:13;1.90;;;1.83;;
11245;SDS011;59870;50.106;8.580;2023-08-06T15:08:40;2.43;;;2.27;;
11245;SDS011;59870;50.106;8.580;2023-08-06T15:11:10;2.67;;;2.57;;
11245;SDS011;59870;50.106;8.580;2023-08-06T15:13:39;2.50;;;2.40;;